Time;durP1;ratioP1;P1;durP2;ratioP2;P2;SDS_P1;SDS_P2;PMS_P1;PMS_P2;Temp;Humidity;BMP_temperature;BMP_pressure;BME280_temperature;BME280_humidity;BME280_pressure;Samples;Min_cycle;Max_cycle;Signal;HPM_P1;HPM_P2
2022/04/20 00:02:03;;;;;;;6.57;4.30;;;10.40;70.40;;;;;;5033011;28;20133;-77
2022/04/20 00:04:29;;;;;;;8.38;4.68;;;10.30;71.50;;;;;;5014057;28;20045;-77
2022/04/20 00:06:54;;;;;;;8.13;4.90;;;10.30;72.20;;;;;;5029703;28;20052;-76
2022/04/20 00:09:20;;;;;;;9.85;5.50;;;10.30;72.60;;;;;;5010855;28;20045;-76
2022/04/20 00:11:46;;;;;;;6.82;4.55;;;10.30;73.10;;;;;;5027339;28;20746;-77
2022/04/20 00:14:13;;;;;;;10.37;4.47;;;10.20;73.90;;;;;;5006619;28;20400;-76
2022/04/20 00:16:38;;;;;;;6.65;4.38;;;10.20;74.50;;;;;;5029185;28;20509;-77
2022/04/20 00:19:04;;;;;;;7.53;4.80;;;10.20;75.20;;;;;;5029104;28;20099;-77
2022/04/20 00:21:29;;;;;;;7.88;5.18;;;10.10;76.10;;;;;;5028662;28;20675;-77
2022/04/20 00:23:55;;;;;;;7.88;5.28;;;10.10;76.60;;;;;;5009854;28;20207;-77
2022/04/20 00:26:21;;;;;;;7.55;5.03;;;10.10;77.20;;;;;;5024934;28;20048;-77
2022/04/20 00:28:47;;;;;;;11.82;5.32;;;10.10;78.10;;;;;;5026281;28;20042;-77
2022/04/20 00:31:18;;;;;;;7.60;5.10;;;10.10;78.80;;;;;;5025434;28;20053;-77
2022/04/20 00:33:44;;;;;;;7.97;5.13;;;10.00;79.50;;;;;;5010904;28;20741;-77
2022/04/20 00:36:10;;;;;;;8.98;5.35;;;9.90;80.50;;;;;;5024538;28;20131;-76
2022/04/20 00:38:35;;;;;;;9.43;5.50;;;9.90;81.10;;;;;;5009291;28;20045;-77
2022/04/20 00:41:01;;;;;;;7.63;5.15;;;9.90;82.40;;;;;;5029625;28;20042;-76
2022/04/20 00:43:33;;;;;;;9.27;5.40;;;9.90;83.00;;;;;;5026444;28;20037;-76
2022/04/20 00:46:00;;;;;;;8.93;5.38;;;9.80;84.50;;;;;;5011186;28;20548;-76
2022/04/20 00:48:27;;;;;;;10.88;5.85;;;9.70;85.60;;;;;;5007241;28;20045;-76
2022/04/20 00:50:52;;;;;;;12.10;6.47;;;9.70;86.50;;;;;;5025838;28;20072;-77
2022/04/20 00:53:18;;;;;;;8.05;5.60;;;9.70;87.80;;;;;;5026613;28;20389;-77
2022/04/20 00:55:43;;;;;;;10.25;5.50;;;9.70;88.80;;;;;;5026772;28;20041;-77
2022/04/20 00:58:09;;;;;;;8.57;5.70;;;9.60;89.10;;;;;;5024973;28;20064;-77
2022/04/20 01:00:35;;;;;;;7.55;5.70;;;9.60;89.40;;;;;;5027061;28;20037;-77
2022/04/20 01:03:01;;;;;;;11.40;6.13;;;9.60;90.00;;;;;;5024797;28;20571;-77
2022/04/20 01:05:27;;;;;;;8.23;5.97;;;9.60;90.60;;;;;;5031956;28;20037;-77
2022/04/20 01:07:54;;;;;;;9.15;5.55;;;9.50;91.10;;;;;;5027668;28;20045;-77
2022/04/20 01:10:22;;;;;;;11.32;6.30;;;9.50;91.10;;;;;;5027666;28;20451;-77
2022/04/20 01:12:48;;;;;;;12.10;6.30;;;9.50;91.70;;;;;;5015370;28;20049;-77
2022/04/20 01:15:14;;;;;;;10.93;6.30;;;9.50;92.00;;;;;;5038768;28;20044;-77
2022/04/20 01:17:40;;;;;;;9.88;6.22;;;9.40;92.30;;;;;;5010467;28;20544;-76
2022/04/20 01:20:16;;;;;;;10.20;6.25;;;9.40;92.70;;;;;;5026820;28;20099;-76
2022/04/20 01:22:42;;;;;;;8.45;5.85;;;9.40;93.40;;;;;;5029919;28;20064;-77
2022/04/20 01:25:13;;;;;;;10.30;6.32;;;9.30;93.20;;;;;;5008950;28;20448;-76
2022/04/20 01:27:39;;;;;;;9.38;6.57;;;9.30;93.80;;;;;;5026871;28;20052;-77
2022/04/20 01:30:06;;;;;;;8.57;6.00;;;9.30;94.40;;;;;;5027397;28;20033;-77
2022/04/20 01:32:32;;;;;;;10.23;6.40;;;9.20;94.80;;;;;;5010385;28;20312;-77
2022/04/20 01:34:58;;;;;;;9.20;6.50;;;9.20;95.10;;;;;;5023752;28;20038;-76
2022/04/20 01:37:23;;;;;;;9.85;6.57;;;9.20;95.50;;;;;;5008191;28;20069;-77
2022/04/20 01:39:51;;;;;;;9.55;6.70;;;9.20;95.70;;;;;;5009783;28;20624;-77
2022/04/20 01:42:17;;;;;;;8.27;6.35;;;9.20;96.00;;;;;;5027252;28;20385;-77
2022/04/20 01:44:42;;;;;;;9.63;6.68;;;9.20;96.30;;;;;;5025543;28;20045;-77
2022/04/20 01:47:08;;;;;;;8.95;6.50;;;9.20;96.50;;;;;;5015086;28;20149;-77
2022/04/20 01:49:34;;;;;;;8.10;6.22;;;9.10;96.90;;;;;;5006781;28;20202;-76
2022/04/20 01:51:59;;;;;;;9.75;7.18;;;9.10;97.20;;;;;;5023928;28;20030;-77
2022/04/20 01:54:25;;;;;;;10.18;5.90;;;9.10;97.40;;;;;;5027007;28;20250;-77
2022/04/20 01:57:00;;;;;;;10.57;6.90;;;9.10;97.50;;;;;;5006809;28;20041;-77
2022/04/20 01:59:28;;;;;;;12.43;7.10;;;9.00;97.70;;;;;;5007649;28;20045;-77
2022/04/20 02:04:38;;;;;;;11.40;7.55;;;9.00;98.00;;;;;;5017235;28;20045;-77
2022/04/20 02:07:07;;;;;;;9.80;6.82;;;9.00;98.40;;;;;;5024447;28;21461;-77
2022/04/20 02:09:32;;;;;;;8.90;6.80;;;9.00;98.60;;;;;;5024337;28;20077;-77
2022/04/20 02:11:58;;;;;;;11.07;6.90;;;9.00;98.80;;;;;;5026352;28;20073;-77
2022/04/20 02:14:24;;;;;;;11.32;6.70;;;8.90;99.20;;;;;;5026752;28;20087;-77
2022/04/20 02:16:49;;;;;;;8.75;6.82;;;8.90;99.60;;;;;;5023330;28;20049;-77
2022/04/20 02:19:15;;;;;;;9.60;7.40;;;8.80;99.90;;;;;;5025600;28;20030;-77
2022/04/20 02:21:40;;;;;;;10.35;7.22;;;8.80;99.90;;;;;;5028327;28;20060;-77
2022/04/20 02:24:06;;;;;;;9.98;7.22;;;8.70;99.90;;;;;;5005981;28;20072;-77
2022/04/20 02:26:32;;;;;;;10.90;7.07;;;8.70;99.90;;;;;;5024306;28;20037;-77
2022/04/20 02:28:57;;;;;;;10.13;7.15;;;8.70;99.90;;;;;;5006126;28;20029;-77
2022/04/20 02:31:23;;;;;;;10.80;7.10;;;8.70;99.90;;;;;;5008746;28;20113;-77
2022/04/20 02:33:48;;;;;;;10.05;7.03;;;8.60;99.90;;;;;;5028361;28;20525;-77
2022/04/20 02:36:14;;;;;;;10.50;7.35;;;8.60;99.90;;;;;;5025452;28;20037;-77
2022/04/20 02:38:40;;;;;;;9.60;7.50;;;8.60;99.90;;;;;;5021914;28;20044;-76
2022/04/20 02:41:07;;;;;;;9.00;6.95;;;8.60;99.90;;;;;;5006899;28;20041;-76
2022/04/20 02:43:32;;;;;;;9.35;7.20;;;8.60;99.90;;;;;;5023659;28;20121;-77
2022/04/20 02:45:58;;;;;;;10.05;7.13;;;8.60;99.90;;;;;;5026184;28;20112;-77
2022/04/20 02:48:23;;;;;;;11.98;7.18;;;8.60;99.90;;;;;;5022208;28;20155;-76
2022/04/20 02:50:49;;;;;;;12.10;7.40;;;8.60;99.90;;;;;;5028468;28;20879;-77
2022/04/20 02:53:21;;;;;;;11.23;6.97;;;8.60;99.90;;;;;;5021161;28;20512;-77
2022/04/20 02:55:46;;;;;;;10.18;7.45;;;8.50;99.90;;;;;;5027027;28;20396;-77
2022/04/20 02:58:12;;;;;;;11.10;8.00;;;8.50;99.90;;;;;;5006278;28;20103;-77
2022/04/20 03:00:38;;;;;;;10.27;7.10;;;8.50;99.90;;;;;;5024861;28;20038;-77
2022/04/20 03:03:04;;;;;;;11.70;7.70;;;8.40;99.90;;;;;;5005567;28;20073;-77
2022/04/20 03:05:29;;;;;;;13.18;7.60;;;8.40;99.90;;;;;;5024586;28;20061;-77
2022/04/20 03:07:58;;;;;;;10.35;7.15;;;8.40;99.90;;;;;;5030279;28;20120;-77
2022/04/20 03:10:24;;;;;;;10.20;7.80;;;8.30;99.90;;;;;;5029529;28;20064;-77
2022/04/20 03:12:49;;;;;;;11.93;7.30;;;8.30;99.90;;;;;;5024453;28;20136;-77
2022/04/20 03:15:15;;;;;;;9.63;7.40;;;8.30;99.90;;;;;;5029260;28;20080;-77
2022/04/20 03:17:44;;;;;;;9.48;7.30;;;8.20;99.90;;;;;;5015231;28;20045;-77
2022/04/20 03:20:10;;;;;;;10.35;7.45;;;8.20;99.90;;;;;;5031976;28;20085;-77
2022/04/20 03:22:36;;;;;;;9.52;7.15;;;8.10;99.90;;;;;;5034473;28;20051;-77
2022/04/20 03:25:03;;;;;;;12.93;7.35;;;8.10;99.90;;;;;;5014009;28;20045;-77
2022/04/20 03:27:29;;;;;;;11.88;8.10;;;8.10;99.90;;;;;;5031203;28;20549;-77
2022/04/20 03:29:55;;;;;;;9.55;7.25;;;8.10;99.90;;;;;;5013905;28;20472;-77
2022/04/20 03:32:21;;;;;;;10.75;7.78;;;8.10;99.90;;;;;;5030730;28;20053;-78
2022/04/20 03:34:46;;;;;;;10.90;7.22;;;8.10;99.90;;;;;;5032348;28;20040;-77
2022/04/20 03:37:12;;;;;;;10.82;7.45;;;8.10;99.90;;;;;;5030103;28;20052;-77
2022/04/20 03:39:38;;;;;;;11.55;7.90;;;8.00;99.90;;;;;;5014660;28;20408;-78
2022/04/20 03:42:05;;;;;;;10.75;7.95;;;8.00;99.90;;;;;;5030034;28;20050;-77
2022/04/20 03:44:31;;;;;;;11.07;7.30;;;8.00;99.90;;;;;;5028849;28;20045;-78
2022/04/20 03:46:57;;;;;;;10.80;7.88;;;8.00;99.90;;;;;;5013436;28;20476;-77
2022/04/20 03:49:23;;;;;;;12.75;7.75;;;8.00;99.90;;;;;;5032849;28;20065;-77
2022/04/20 03:51:49;;;;;;;10.25;7.82;;;8.00;99.90;;;;;;5031837;28;20048;-77
2022/04/20 03:54:15;;;;;;;11.15;7.93;;;8.00;99.90;;;;;;5012514;28;20045;-77
2022/04/20 03:59:25;;;;;;;11.35;7.78;;;7.90;99.90;;;;;;5010106;28;20136;-77
2022/04/20 04:01:51;;;;;;;9.57;7.90;;;7.90;99.90;;;;;;5014582;28;20480;-78
2022/04/20 04:04:18;;;;;;;12.77;7.60;;;7.90;99.90;;;;;;5032711;28;20198;-77
2022/04/20 04:06:43;;;;;;;11.18;7.80;;;7.80;99.90;;;;;;5026009;28;20087;-77
2022/04/20 04:09:09;;;;;;;9.32;7.82;;;7.90;99.90;;;;;;5031350;28;20049;-77
2022/04/20 04:11:35;;;;;;;11.13;7.88;;;7.80;99.90;;;;;;5015109;28;20052;-77
2022/04/20 04:14:10;;;;;;;9.60;8.05;;;7.90;99.90;;;;;;5034202;28;20427;-77
2022/04/20 04:16:39;;;;;;;10.73;8.07;;;7.90;99.90;;;;;;5013275;28;20037;-77
2022/04/20 04:19:07;;;;;;;11.35;7.85;;;7.80;99.90;;;;;;5026244;28;20532;-77
2022/04/20 04:21:36;;;;;;;10.88;7.97;;;7.80;99.90;;;;;;5025483;28;20042;-77
2022/04/20 04:24:02;;;;;;;9.77;7.57;;;7.80;99.90;;;;;;5012231;28;20049;-77
2022/04/20 04:26:30;;;;;;;11.25;8.63;;;7.70;99.90;;;;;;5011407;28;20033;-77
2022/04/20 04:28:56;;;;;;;12.57;7.82;;;7.70;99.90;;;;;;5033777;28;20061;-77
2022/04/20 04:31:21;;;;;;;12.85;8.45;;;7.70;99.90;;;;;;5028198;28;20049;-77
2022/04/20 04:33:47;;;;;;;12.23;8.07;;;7.60;99.90;;;;;;4997256;28;20048;-76
2022/04/20 04:36:13;;;;;;;9.85;7.97;;;7.60;99.90;;;;;;5026278;28;20053;-77
2022/04/20 04:38:38;;;;;;;11.55;7.93;;;7.60;99.90;;;;;;5027763;28;20045;-77
2022/04/20 04:41:04;;;;;;;11.18;7.45;;;7.60;99.90;;;;;;5010878;28;20712;-77
2022/04/20 04:43:29;;;;;;;11.80;7.78;;;7.60;99.90;;;;;;5027268;28;20092;-77
2022/04/20 04:48:39;;;;;;;9.70;7.80;;;7.60;99.90;;;;;;5027688;28;20512;-77
2022/04/20 04:51:10;;;;;;;9.68;7.30;;;7.50;99.90;;;;;;5009320;28;20045;-77
2022/04/20 04:53:36;;;;;;;11.07;7.45;;;7.50;99.90;;;;;;5028870;28;20068;-77
2022/04/20 04:56:08;;;;;;;11.70;8.23;;;7.50;99.90;;;;;;5030041;28;20120;-77
2022/04/20 04:58:34;;;;;;;12.68;7.68;;;7.50;99.90;;;;;;5006190;28;20049;-77
2022/04/20 05:00:59;;;;;;;10.38;7.95;;;7.50;99.90;;;;;;5028105;28;20052;-77
2022/04/20 05:03:25;;;;;;;10.93;7.85;;;7.60;99.90;;;;;;5029847;28;20121;-77
2022/04/20 05:05:52;;;;;;;12.50;7.95;;;7.60;99.90;;;;;;5026507;28;20041;-77
2022/04/20 05:08:20;;;;;;;9.60;7.68;;;7.60;99.90;;;;;;5026958;28;20050;-77
2022/04/20 05:10:50;;;;;;;10.52;7.72;;;7.60;99.90;;;;;;5024986;28;20049;-77
2022/04/20 05:13:16;;;;;;;11.35;7.57;;;7.60;99.90;;;;;;5020828;28;20470;-77
2022/04/20 05:15:42;;;;;;;11.02;7.97;;;7.70;99.90;;;;;;5027035;28;20041;-77
2022/04/20 05:18:07;;;;;;;10.77;7.28;;;7.60;99.90;;;;;;5018375;28;20139;-77
2022/04/20 05:20:33;;;;;;;9.82;7.43;;;7.60;99.90;;;;;;5026119;28;20038;-77
2022/04/20 05:22:59;;;;;;;14.65;8.40;;;7.60;99.90;;;;;;5017112;28;20049;-77
2022/04/20 05:25:24;;;;;;;9.38;7.43;;;7.70;99.90;;;;;;5007710;28;20574;-76
2022/04/20 05:27:52;;;;;;;11.60;8.10;;;7.70;99.90;;;;;;5024700;28;20456;-76
2022/04/20 05:30:17;;;;;;;10.23;8.27;;;7.70;99.90;;;;;;5024362;28;20483;-76
2022/04/20 05:32:45;;;;;;;11.18;7.75;;;7.80;99.90;;;;;;5023333;28;20509;-76
2022/04/20 05:35:11;;;;;;;10.65;7.80;;;7.80;99.90;;;;;;5007645;28;20041;-77
2022/04/20 05:43:05;;;;;;;16.73;9.65;;;8.00;99.90;;;;;;5026742;28;20050;-77
2022/04/20 05:45:31;;;;;;;12.38;8.25;;;8.00;99.90;;;;;;5009430;28;20443;-77
2022/04/20 05:48:01;;;;;;;10.25;8.07;;;8.00;99.90;;;;;;5007746;28;20045;-76
2022/04/20 05:50:27;;;;;;;9.77;8.00;;;8.00;99.90;;;;;;5024008;28;20885;-77
2022/04/20 05:52:52;;;;;;;10.95;8.18;;;8.10;99.90;;;;;;5007794;28;20053;-76
2022/04/20 05:55:18;;;;;;;11.13;7.93;;;8.10;99.90;;;;;;5027253;28;20052;-78
2022/04/20 05:57:47;;;;;;;9.55;7.70;;;8.10;99.90;;;;;;5020797;28;20863;-76
2022/04/20 06:00:22;;;;;;;9.93;7.82;;;8.20;99.90;;;;;;5001157;28;20092;-76
2022/04/20 06:02:48;;;;;;;13.32;8.02;;;8.20;99.90;;;;;;5022841;28;20049;-76
2022/04/20 06:05:13;;;;;;;9.23;7.88;;;8.30;99.90;;;;;;5024553;28;20037;-76
2022/04/20 06:07:39;;;;;;;12.85;7.97;;;8.30;99.90;;;;;;5026713;28;20440;-76
2022/04/20 06:10:06;;;;;;;11.82;8.05;;;8.40;99.90;;;;;;5018075;28;20052;-76
2022/04/20 06:12:37;;;;;;;18.98;7.65;;;8.50;99.90;;;;;;5007560;28;20049;-74
2022/04/20 06:15:03;;;;;;;10.07;7.68;;;8.50;99.90;;;;;;5024736;28;20049;-73
2022/04/20 06:17:29;;;;;;;12.88;7.88;;;8.60;99.90;;;;;;5027946;28;20158;-74
2022/04/20 06:19:55;;;;;;;11.18;7.47;;;8.60;99.90;;;;;;5032147;28;20063;-73
2022/04/20 06:22:21;;;;;;;10.50;7.68;;;8.70;99.90;;;;;;5029700;28;20052;-73
2022/04/20 06:24:46;;;;;;;14.85;7.65;;;8.70;99.90;;;;;;5027423;28;20041;-73
2022/04/20 06:27:12;;;;;;;9.68;7.30;;;8.80;99.90;;;;;;5033141;28;20107;-74
2022/04/20 06:29:39;;;;;;;10.43;7.20;;;8.80;99.90;;;;;;5023829;28;20063;-74
2022/04/20 06:32:06;;;;;;;9.77;6.70;;;8.90;99.90;;;;;;5006770;28;20045;-74
2022/04/20 06:34:32;;;;;;;9.00;6.68;;;8.90;99.90;;;;;;5021037;28;20041;-74
2022/04/20 06:36:58;;;;;;;9.40;7.13;;;9.00;99.90;;;;;;5006168;28;20507;-74
2022/04/20 06:39:23;;;;;;;13.13;6.70;;;9.00;99.90;;;;;;5008144;28;20088;-74
2022/04/20 06:41:51;;;;;;;9.25;7.63;;;9.10;99.90;;;;;;5007110;28;20136;-74
2022/04/20 06:44:17;;;;;;;8.63;6.93;;;9.20;99.80;;;;;;5021935;28;20049;-73
2022/04/20 06:46:45;;;;;;;11.70;7.60;;;9.20;99.90;;;;;;5005624;28;20049;-75
2022/04/20 06:49:11;;;;;;;10.15;7.22;;;9.30;99.90;;;;;;5026325;28;20063;-75
2022/04/20 06:59:51;;;;;;;9.57;7.03;;;9.60;98.70;;;;;;5003682;28;20108;-74
2022/04/20 07:02:17;;;;;;;9.55;6.90;;;9.70;98.20;;;;;;5028008;28;20049;-75
2022/04/20 07:04:42;;;;;;;11.10;6.88;;;9.70;97.60;;;;;;5024278;28;20083;-75
2022/04/20 07:07:08;;;;;;;8.48;6.30;;;9.70;96.00;;;;;;5007270;28;20052;-75
2022/04/20 07:09:34;;;;;;;13.95;7.55;;;9.80;96.10;;;;;;5006350;28;20544;-75
2022/04/20 07:12:00;;;;;;;10.70;6.65;;;9.80;97.20;;;;;;5006287;28;20033;-74
2022/04/20 07:14:26;;;;;;;10.68;6.68;;;9.90;97.30;;;;;;5024735;28;20439;-75
2022/04/20 07:16:51;;;;;;;9.32;6.68;;;10.00;97.20;;;;;;5004345;28;20083;-74
2022/04/20 07:19:17;;;;;;;8.48;6.25;;;10.10;96.00;;;;;;5020669;28;20052;-75
2022/04/20 07:21:42;;;;;;;9.75;6.93;;;10.10;93.80;;;;;;5025017;28;20428;-75
2022/04/20 07:24:08;;;;;;;9.15;6.45;;;10.10;92.90;;;;;;5025545;28;20049;-73
2022/04/20 07:26:34;;;;;;;13.30;6.63;;;10.30;93.30;;;;;;5007639;28;20908;-75
2022/04/20 07:28:59;;;;;;;8.07;5.88;;;10.30;93.00;;;;;;5024901;28;20049;-76
2022/04/20 07:31:25;;;;;;;10.20;6.18;;;10.30;90.70;;;;;;5010582;28;20045;-76
2022/04/20 07:33:51;;;;;;;9.43;6.30;;;10.30;91.20;;;;;;5012492;28;20084;-75
2022/04/20 07:36:17;;;;;;;9.05;6.43;;;10.40;91.20;;;;;;5027227;28;20646;-74
2022/04/20 07:38:43;;;;;;;10.38;6.05;;;10.50;90.90;;;;;;5009274;28;20049;-76
2022/04/20 07:41:08;;;;;;;9.13;6.13;;;10.50;91.20;;;;;;5009859;28;20051;-76
2022/04/20 07:43:35;;;;;;;7.47;5.32;;;10.50;90.70;;;;;;5026614;28;20937;-76
2022/04/20 07:46:01;;;;;;;9.77;6.38;;;10.60;90.60;;;;;;5026631;28;20037;-77
2022/04/20 07:48:26;;;;;;;8.95;5.88;;;10.60;91.50;;;;;;5023378;28;20041;-76
2022/04/20 07:50:53;;;;;;;8.43;5.97;;;10.70;89.40;;;;;;5009264;28;20053;-75
2022/04/20 07:53:18;;;;;;;8.55;6.10;;;10.70;87.30;;;;;;5026231;28;20050;-74
2022/04/20 07:55:47;;;;;;;7.22;5.30;;;10.80;90.60;;;;;;5043742;28;20125;-77
2022/04/20 07:58:14;;;;;;;8.25;5.90;;;10.90;86.70;;;;;;5031204;28;20049;-75
2022/04/20 08:00:40;;;;;;;8.63;5.57;;;10.90;86.20;;;;;;5030901;28;20133;-76
2022/04/20 08:03:16;;;;;;;6.60;5.20;;;11.10;86.00;;;;;;5014191;28;20049;-73
2022/04/20 08:05:47;;;;;;;8.63;6.15;;;11.20;82.00;;;;;;5031726;28;20577;-78
2022/04/20 08:08:12;;;;;;;7.47;5.28;;;11.30;87.40;;;;;;5043611;28;20394;-77
2022/04/20 08:10:38;;;;;;;8.05;5.38;;;11.40;86.40;;;;;;5050427;28;20124;-77
2022/04/20 08:15:49;;;;;;;6.35;5.50;;;11.50;82.50;;;;;;5018258;28;20045;-78
2022/04/20 08:18:15;;;;;;;12.23;5.50;;;11.60;78.20;;;;;;5029033;28;20099;-78
2022/04/20 08:20:44;;;;;;;7.28;5.35;;;11.70;78.70;;;;;;5031262;28;20051;-78
2022/04/20 08:23:19;;;;;;;7.28;5.05;;;11.70;75.60;;;;;;5029828;28;20061;-78
2022/04/20 08:25:45;;;;;;;7.78;4.18;;;11.80;76.00;;;;;;5007440;28;20053;-79
2022/04/20 08:28:12;;;;;;;7.40;4.30;;;11.90;70.60;;;;;;5029101;28;20052;-79
2022/04/20 08:30:39;;;;;;;7.10;4.07;;;12.00;68.40;;;;;;5023064;28;20081;-79
2022/04/20 08:33:07;;;;;;;5.18;3.53;;;12.00;66.90;;;;;;5028381;28;20075;-78
2022/04/20 08:35:37;;;;;;;6.13;3.70;;;12.10;64.70;;;;;;5012998;28;20047;-78
2022/04/20 08:38:03;;;;;;;8.38;3.90;;;12.20;63.80;;;;;;5036835;28;20128;-78
2022/04/20 08:40:29;;;;;;;5.35;3.63;;;12.20;63.20;;;;;;5016113;28;20092;-78
2022/04/20 08:42:57;;;;;;;6.28;3.78;;;12.30;61.70;;;;;;5036515;28;20048;-77
2022/04/20 08:45:23;;;;;;;;;;;12.40;61.60;;;;;;5046934;28;20480;-78
2022/04/20 08:47:49;;;;;;;4.75;3.00;;;12.40;59.60;;;;;;5031858;28;19921;-75
2022/04/20 08:50:16;;;;;;;4.80;3.33;;;12.40;60.80;;;;;;5028593;28;20133;-75
2022/04/20 08:52:46;;;;;;;6.05;3.30;;;12.60;60.00;;;;;;5012454;28;20060;-75
2022/04/20 08:55:17;;;;;;;5.05;3.10;;;12.70;58.90;;;;;;5011066;28;20065;-75
2022/04/20 08:57:48;;;;;;;4.35;2.85;;;12.80;58.20;;;;;;5028918;28;20076;-75
2022/04/20 09:00:23;;;;;;;4.60;2.80;;;12.80;56.90;;;;;;5028925;28;20045;-75
2022/04/20 09:03:01;;;;;;;6.90;2.70;;;12.90;55.20;;;;;;5045192;28;20056;-76
2022/04/20 09:05:28;;;;;;;5.80;2.78;;;12.90;54.50;;;;;;5022656;28;20061;-75
2022/04/20 09:07:54;;;;;;;5.15;2.88;;;13.00;53.90;;;;;;5008816;28;20524;-74
2022/04/20 09:10:20;;;;;;;3.75;2.67;;;13.00;53.70;;;;;;5025320;28;20060;-75
2022/04/20 09:12:47;;;;;;;6.30;2.72;;;13.00;53.00;;;;;;5035257;28;20132;-76
2022/04/20 09:15:31;;;;;;;4.57;2.87;;;13.10;53.50;;;;;;5029316;28;20042;-75
2022/04/20 09:17:57;;;;;;;3.92;2.50;;;13.20;52.40;;;;;;5012169;28;20463;-74
2022/04/20 09:20:23;;;;;;;3.15;2.15;;;13.20;51.30;;;;;;5029349;28;20049;-75
2022/04/20 09:23:03;;;;;;;3.65;2.20;;;13.30;49.50;;;;;;5037964;28;20110;-75
2022/04/20 09:25:37;;;;;;;4.32;2.60;;;13.40;49.90;;;;;;5028331;28;20060;-75
2022/04/20 09:28:04;;;;;;;3.10;2.22;;;13.50;50.20;;;;;;5027300;28;20077;-73
2022/04/20 09:30:35;;;;;;;;;;;13.50;50.00;;;;;;5008913;28;20041;-74
2022/04/20 09:33:06;;;;;;;5.72;2.45;;;13.60;49.60;;;;;;5005980;28;19925;-83
2022/04/20 09:35:40;;;;;;;5.85;2.60;;;13.60;50.80;;;;;;5008590;28;20551;-82
2022/04/20 09:38:07;;;;;;;4.35;2.47;;;13.70;50.40;;;;;;5032382;28;20094;-80
2022/04/20 09:40:38;;;;;;;5.03;2.85;;;13.80;50.60;;;;;;5049361;28;20041;-81
2022/04/20 09:43:06;;;;;;;4.72;2.80;;;13.90;50.80;;;;;;5036105;28;20080;-81
2022/04/20 09:45:33;;;;;;;4.90;2.25;;;14.00;50.80;;;;;;5036083;28;20069;-82
2022/04/20 09:51:11;;;;;;;4.03;2.15;;;14.20;49.30;;;;;;5005266;28;20048;-82
2022/04/20 09:53:38;;;;;;;7.07;2.60;;;14.20;49.60;;;;;;5028255;28;20044;-79
2022/04/20 09:56:27;;;;;;;4.00;2.55;;;14.30;50.50;;;;;;5026577;28;20041;-80
2022/04/20 09:59:04;;;;;;;5.88;2.70;;;14.40;50.00;;;;;;5020620;28;20466;-75
2022/04/20 10:01:35;;;;;;;3.40;2.38;;;14.50;49.50;;;;;;5030802;28;20085;-75
2022/04/20 10:04:06;;;;;;;4.03;2.30;;;14.50;49.00;;;;;;5023118;28;20514;-74
2022/04/20 10:06:32;;;;;;;7.82;2.40;;;14.60;48.20;;;;;;5029914;28;20491;-76
2022/04/20 10:08:58;;;;;;;3.72;2.38;;;14.50;47.00;;;;;;5033071;28;20084;-76
2022/04/20 10:11:25;;;;;;;3.83;2.30;;;14.50;47.10;;;;;;5025148;28;20081;-76
2022/04/20 10:16:39;;;;;;;3.78;2.20;;;14.60;48.30;;;;;;5027558;28;20053;-78
2022/04/20 10:19:12;;;;;;;4.03;2.30;;;14.70;49.00;;;;;;5027034;28;20045;-78
2022/04/20 10:21:47;;;;;;;4.88;2.40;;;14.70;48.90;;;;;;5043272;28;20055;-77
2022/04/20 10:24:18;;;;;;;4.78;2.50;;;14.90;49.00;;;;;;5048052;28;20151;-77
2022/04/20 10:26:45;;;;;;;3.97;2.40;;;15.10;49.10;;;;;;5010902;28;20037;-77
2022/04/20 10:29:23;;;;;;;4.22;2.33;;;15.10;48.80;;;;;;5016757;28;20049;-73
2022/04/20 10:32:22;;;;;;;4.65;2.40;;;15.20;48.30;;;;;;5041261;28;20454;-79
2022/04/20 10:34:52;;;;;;;4.72;3.13;;;15.30;47.80;;;;;;5031018;28;20049;-79
2022/04/20 10:37:31;;;;;;;3.60;2.30;;;15.30;47.90;;;;;;5008540;28;20064;-82
2022/04/20 10:40:34;;;;;;;4.80;2.58;;;15.30;48.20;;;;;;5011940;28;20038;-79
2022/04/20 10:43:20;;;;;;;4.20;2.50;;;15.40;47.60;;;;;;4969292;28;20050;-79
2022/04/20 10:46:21;;;;;;;6.38;2.60;;;15.40;46.80;;;;;;5010054;28;20061;-78
2022/04/20 10:48:52;;;;;;;4.95;2.50;;;15.40;47.20;;;;;;4965163;28;20534;-81
2022/04/20 10:51:24;;;;;;;6.65;2.50;;;15.40;47.10;;;;;;5016261;28;20053;-76
2022/04/20 10:53:52;;;;;;;4.90;3.15;;;15.40;47.40;;;;;;5025863;28;20508;-78
2022/04/20 10:56:20;;;;;;;3.67;2.60;;;15.50;47.40;;;;;;5026838;28;20559;-76
2022/04/20 10:59:07;;;;;;;5.60;2.63;;;15.50;48.00;;;;;;5026383;28;20050;-79
2022/04/20 11:01:58;;;;;;;4.63;2.50;;;15.60;47.70;;;;;;5027983;28;20045;-77
2022/04/20 11:04:39;;;;;;;7.53;2.75;;;15.70;47.50;;;;;;5009977;28;20045;-76
2022/04/20 11:07:08;;;;;;;7.13;2.88;;;15.80;48.20;;;;;;5025229;28;20069;-76
2022/04/20 11:09:45;;;;;;;3.95;2.60;;;15.80;47.50;;;;;;5015934;28;20067;-75
2022/04/20 11:21:05;;;;;;;5.00;3.10;;;16.00;46.50;;;;;;5006398;28;20050;-74
2022/04/20 11:24:08;;;;;;;5.60;2.90;;;16.10;46.60;;;;;;5011512;28;20049;-74
2022/04/20 11:26:43;;;;;;;5.20;2.97;;;16.10;47.60;;;;;;5031976;28;20037;-73
2022/04/20 11:29:17;;;;;;;5.53;3.05;;;16.10;45.80;;;;;;5030878;28;20042;-74
2022/04/20 11:31:45;;;;;;;6.75;3.10;;;16.10;46.40;;;;;;5037621;28;20033;-74
2022/04/20 11:34:12;;;;;;;5.90;3.15;;;16.20;46.40;;;;;;5030760;28;20076;-74
2022/04/20 11:36:43;;;;;;;4.70;2.93;;;16.10;46.10;;;;;;5036221;28;20087;-74
2022/04/20 11:39:10;;;;;;;4.95;3.30;;;16.20;46.50;;;;;;5045520;28;20299;-73
2022/04/20 11:41:39;;;;;;;7.03;3.40;;;16.20;46.80;;;;;;5021681;28;20608;-73
2022/04/20 11:44:19;;;;;;;5.90;2.95;;;16.30;46.50;;;;;;5030503;28;20400;-73
2022/04/20 11:46:45;;;;;;;5.97;3.10;;;16.30;45.30;;;;;;5031417;28;20045;-75
2022/04/20 11:49:12;;;;;;;5.70;3.25;;;16.30;46.50;;;;;;5033643;28;20381;-72
2022/04/20 11:51:43;;;;;;;6.87;3.20;;;16.30;46.30;;;;;;5030379;28;20579;-72
2022/04/20 11:54:09;;;;;;;5.80;3.45;;;16.30;46.10;;;;;;5032929;28;20049;-71
2022/04/20 11:56:37;;;;;;;6.45;3.38;;;16.40;45.50;;;;;;5032824;28;20103;-71
2022/04/20 11:59:07;;;;;;;6.85;3.33;;;16.40;45.40;;;;;;5025032;28;20095;-72
2022/04/20 12:01:35;;;;;;;8.27;3.60;;;16.40;45.60;;;;;;5023827;28;20049;-72
2022/04/20 12:04:10;;;;;;;;;;;16.50;46.00;;;;;;5029341;28;20064;-72
2022/04/20 12:06:36;;;;;;;5.28;3.20;;;16.50;46.50;;;;;;5029434;28;19924;-72
2022/04/20 12:09:02;;;;;;;5.45;3.50;;;16.70;47.20;;;;;;5029625;28;20049;-72
2022/04/20 12:11:32;;;;;;;6.50;3.73;;;16.80;46.40;;;;;;5012040;28;20061;-72
2022/04/20 12:13:58;;;;;;;7.43;3.80;;;16.80;45.60;;;;;;5012416;28;20153;-72
2022/04/20 12:16:24;;;;;;;6.30;4.03;;;16.90;46.60;;;;;;5041351;28;20052;-71
2022/04/20 12:18:50;;;;;;;5.65;3.60;;;17.00;47.40;;;;;;5029638;28;20048;-75
2022/04/20 12:21:34;;;;;;;6.03;3.65;;;17.10;46.80;;;;;;5008480;28;20041;-77
2022/04/20 12:24:21;;;;;;;8.35;4.15;;;17.20;46.90;;;;;;5018371;28;20628;-76
2022/04/20 12:26:47;;;;;;;8.00;3.90;;;17.20;47.50;;;;;;5012616;28;20081;-76
2022/04/20 12:29:15;;;;;;;6.82;4.00;;;17.30;46.60;;;;;;5027897;28;20103;-73
2022/04/20 12:31:43;;;;;;;7.90;4.10;;;17.30;46.50;;;;;;5023198;28;20045;-74
2022/04/20 12:34:09;;;;;;;;;;;17.40;46.40;;;;;;5012287;28;20132;-71
2022/04/20 12:36:58;;;;;;;7.13;4.60;;;17.30;46.30;;;;;;5017302;28;19929;-75
2022/04/20 12:39:33;;;;;;;5.80;4.57;;;17.30;46.80;;;;;;5013424;28;20046;-75
2022/04/20 12:42:09;;;;;;;5.88;4.60;;;17.40;47.50;;;;;;5009432;28;20046;-75
2022/04/20 12:44:51;;;;;;;6.37;5.07;;;17.40;47.20;;;;;;5035883;28;20069;-75
2022/04/20 12:47:17;;;;;;;5.95;4.25;;;17.50;47.00;;;;;;5049340;28;20521;-75
2022/04/20 12:50:03;;;;;;;8.23;4.97;;;17.40;46.50;;;;;;5018080;28;20137;-76
2022/04/20 12:52:29;;;;;;;5.70;4.50;;;17.50;47.20;;;;;;5009755;28;20050;-75
2022/04/20 12:54:57;;;;;;;7.68;4.75;;;17.60;46.80;;;;;;5008342;28;20678;-75
2022/04/20 13:03:02;;;;;;;7.45;5.07;;;17.60;47.00;;;;;;5028959;28;20257;-75
2022/04/20 13:05:28;;;;;;;6.65;4.90;;;17.60;46.60;;;;;;5028883;28;20052;-76
2022/04/20 13:07:53;;;;;;;10.27;5.10;;;17.60;46.90;;;;;;5029017;28;20041;-75
2022/04/20 13:10:19;;;;;;;10.40;4.70;;;17.60;46.90;;;;;;5013603;28;20363;-75
2022/04/20 13:12:52;;;;;;;7.97;4.70;;;17.70;47.10;;;;;;5010555;28;20089;-75
2022/04/20 13:15:29;;;;;;;7.90;4.63;;;17.80;45.90;;;;;;5007595;28;20034;-75
2022/04/20 13:17:57;;;;;;;7.00;4.65;;;17.80;46.60;;;;;;5008869;28;20247;-75
2022/04/20 13:20:23;;;;;;;7.95;5.15;;;17.80;46.70;;;;;;5008215;28;20046;-75
2022/04/20 13:22:49;;;;;;;6.05;4.70;;;17.80;46.60;;;;;;5009205;28;20044;-75
2022/04/20 13:28:01;;;;;;;9.38;4.63;;;17.90;46.90;;;;;;5009050;28;20049;-75
2022/04/20 13:30:39;;;;;;;10.07;4.93;;;18.00;46.90;;;;;;5009168;28;20406;-75
2022/04/20 13:33:07;;;;;;;9.52;4.30;;;18.10;46.60;;;;;;5008724;28;20081;-75
2022/04/20 13:35:34;;;;;;;7.40;4.70;;;18.10;46.00;;;;;;5008535;28;20481;-75
2022/04/20 13:38:00;;;;;;;7.07;4.43;;;18.00;45.80;;;;;;5008484;28;20049;-75
2022/04/20 13:40:26;;;;;;;7.40;4.43;;;18.10;46.50;;;;;;5007790;28;20077;-76
2022/04/20 13:42:54;;;;;;;5.88;4.57;;;18.10;45.90;;;;;;5008952;28;20042;-76
2022/04/20 13:45:20;;;;;;;7.47;4.68;;;18.10;44.90;;;;;;5008819;28;20065;-75